sensor_id;sensor_type;location;lat;lon;timestamp;pressure;altitude;pressure_sealevel;temperature;humidity
55755;BME280;41674;52.290;-1.474;2022-10-17T00:02:16;100134.63;;;14.86;100.00
55755;BME280;41674;52.290;-1.474;2022-10-17T00:04:46;100135.89;;;14.32;100.00
55755;BME280;41674;52.290;-1.474;2022-10-17T00:07:15;100140.37;;;14.01;100.00
55755;BME280;41674;52.290;-1.474;2022-10-17T00:09:45;100141.23;;;14.19;100.00
55755;BME280;41674;52.290;-1.474;2022-10-17T00:12:14;100138.65;;;14.16;100.00
55755;BME280;41674;52.290;-1.474;2022-10-17T00:14:44;100139.11;;;14.38;100.00
55755;BME280;41674;52.290;-1.474;2022-10-17T00:17:13;100140.98;;;14.88;100.00
55755;BME280;41674;52.290;-1.474;2022-10-17T00:19:43;100148.25;;;14.23;100.00
55755;BME280;41674;52.290;-1.474;2022-10-17T00:22:12;100150.12;;;14.63;100.00
55755;BME280;41674;52.290;-1.474;2022-10-17T00:24:42;100151.89;;;14.24;100.00
55755;BME280;41674;52.290;-1.474;2022-10-17T00:27:11;100150.23;;;14.46;100.00
55755;BME280;41674;52.290;-1.474;2022-10-17T00:29:41;100143.69;;;14.39;100.00
55755;BME280;41674;52.290;-1.474;2022-10-17T00:32:11;100147.54;;;14.53;100.00
55755;BME280;41674;52.290;-1.474;2022-10-17T00:34:40;100152.92;;;14.29;100.00
55755;BME280;41674;52.290;-1.474;2022-10-17T00:37:10;100160.04;;;14.62;100.00
55755;BME280;41674;52.290;-1.474;2022-10-17T00:39:39;100158.07;;;14.67;100.00
55755;BME280;41674;52.290;-1.474;2022-10-17T00:42:11;100157.89;;;14.18;100.00
55755;BME280;41674;52.290;-1.474;2022-10-17T00:45:00;100163.70;;;13.67;100.00
55755;BME280;41674;52.290;-1.474;2022-10-17T00:47:10;100154.98;;;14.00;100.00
55755;BME280;41674;52.290;-1.474;2022-10-17T00:49:38;100156.49;;;14.08;100.00
55755;BME280;41674;52.290;-1.474;2022-10-17T00:52:10;100146.37;;;14.05;100.00
55755;BME280;41674;52.290;-1.474;2022-10-17T00:54:40;100152.85;;;14.05;100.00
55755;BME280;41674;52.290;-1.474;2022-10-17T00:57:06;100156.20;;;14.48;100.00
55755;BME280;41674;52.290;-1.474;2022-10-17T00:59:38;100162.03;;;13.78;100.00
55755;BME280;41674;52.290;-1.474;2022-10-17T01:02:09;100155.98;;;14.27;100.00
55755;BME280;41674;52.290;-1.474;2022-10-17T01:04:36;100142.24;;;14.35;100.00
55755;BME280;41674;52.290;-1.474;2022-10-17T01:07:05;100138.49;;;14.55;100.00
55755;BME280;41674;52.290;-1.474;2022-10-17T01:09:34;100133.01;;;14.54;100.00
55755;BME280;41674;52.290;-1.474;2022-10-17T01:12:10;100126.33;;;14.91;100.00
55755;BME280;41674;52.290;-1.474;2022-10-17T01:14:41;100123.14;;;14.30;100.00
55755;BME280;41674;52.290;-1.474;2022-10-17T01:17:07;100121.52;;;14.13;100.00
55755;BME280;41674;52.290;-1.474;2022-10-17T01:19:44;100133.17;;;14.63;100.00
55755;BME280;41674;52.290;-1.474;2022-10-17T01:22:06;100134.74;;;14.13;100.00
55755;BME280;41674;52.290;-1.474;2022-10-17T01:24:46;100147.37;;;14.26;100.00
55755;BME280;41674;52.290;-1.474;2022-10-17T01:27:12;100151.53;;;14.40;100.00
55755;BME280;41674;52.290;-1.474;2022-10-17T01:32:02;100155.33;;;13.56;100.00
55755;BME280;41674;52.290;-1.474;2022-10-17T01:34:33;100160.03;;;13.76;100.00
55755;BME280;41674;52.290;-1.474;2022-10-17T01:37:02;100161.88;;;13.88;100.00
55755;BME280;41674;52.290;-1.474;2022-10-17T01:39:39;100162.31;;;13.43;100.00
55755;BME280;41674;52.290;-1.474;2022-10-17T01:42:02;100163.44;;;13.57;100.00
55755;BME280;41674;52.290;-1.474;2022-10-17T01:44:33;100160.16;;;14.03;100.00
55755;BME280;41674;52.290;-1.474;2022-10-17T01:47:02;100170.34;;;14.08;100.00
55755;BME280;41674;52.290;-1.474;2022-10-17T01:49:28;100176.99;;;13.88;100.00
55755;BME280;41674;52.290;-1.474;2022-10-17T01:52:02;100186.29;;;13.01;100.00
55755;BME280;41674;52.290;-1.474;2022-10-17T01:54:30;100181.72;;;13.56;100.00
55755;BME280;41674;52.290;-1.474;2022-10-17T01:56:58;100183.67;;;13.97;100.00
55755;BME280;41674;52.290;-1.474;2022-10-17T01:59:30;100197.46;;;13.50;100.00
55755;BME280;41674;52.290;-1.474;2022-10-17T02:01:56;100191.38;;;13.70;100.00
55755;BME280;41674;52.290;-1.474;2022-10-17T02:04:25;100195.07;;;13.81;100.00
55755;BME280;41674;52.290;-1.474;2022-10-17T02:06:54;100201.29;;;14.36;100.00
55755;BME280;41674;52.290;-1.474;2022-10-17T02:09:25;100209.66;;;13.71;100.00
55755;BME280;41674;52.290;-1.474;2022-10-17T02:12:10;100210.68;;;14.44;100.00
55755;BME280;41674;52.290;-1.474;2022-10-17T02:14:31;100218.38;;;14.39;100.00
55755;BME280;41674;52.290;-1.474;2022-10-17T02:17:00;100218.39;;;13.44;100.00
55755;BME280;41674;52.290;-1.474;2022-10-17T02:19:34;100224.29;;;14.05;100.00
55755;BME280;41674;52.290;-1.474;2022-10-17T02:21:56;100221.10;;;14.29;100.00
55755;BME280;41674;52.290;-1.474;2022-10-17T02:24:28;100228.77;;;14.26;100.00
55755;BME280;41674;52.290;-1.474;2022-10-17T02:26:54;100230.60;;;14.55;100.00
55755;BME280;41674;52.290;-1.474;2022-10-17T02:29:22;100231.44;;;14.67;100.00
55755;BME280;41674;52.290;-1.474;2022-10-17T02:31:54;100239.50;;;14.32;100.00
55755;BME280;41674;52.290;-1.474;2022-10-17T02:34:23;100242.01;;;14.59;100.00
55755;BME280;41674;52.290;-1.474;2022-10-17T02:36:51;100246.22;;;14.78;100.00
55755;BME280;41674;52.290;-1.474;2022-10-17T02:39:20;100254.16;;;14.45;100.00
55755;BME280;41674;52.290;-1.474;2022-10-17T02:41:48;100244.96;;;14.28;100.00
55755;BME280;41674;52.290;-1.474;2022-10-17T02:44:18;100247.12;;;14.18;100.00
55755;BME280;41674;52.290;-1.474;2022-10-17T02:46:53;100241.37;;;13.81;100.00
55755;BME280;41674;52.290;-1.474;2022-10-17T02:49:19;100244.10;;;13.34;100.00
55755;BME280;41674;52.290;-1.474;2022-10-17T02:51:50;100247.27;;;13.97;100.00
55755;BME280;41674;52.290;-1.474;2022-10-17T02:54:19;100242.33;;;13.82;100.00
55755;BME280;41674;52.290;-1.474;2022-10-17T02:56:50;100245.22;;;13.48;100.00
55755;BME280;41674;52.290;-1.474;2022-10-17T02:59:17;100246.30;;;13.07;100.00
55755;BME280;41674;52.290;-1.474;2022-10-17T03:01:44;100243.18;;;13.81;100.00
55755;BME280;41674;52.290;-1.474;2022-10-17T03:04:14;100249.18;;;13.41;100.00
55755;BME280;41674;52.290;-1.474;2022-10-17T03:06:45;100242.56;;;13.79;100.00
55755;BME280;41674;52.290;-1.474;2022-10-17T03:09:13;100252.60;;;14.21;100.00
55755;BME280;41674;52.290;-1.474;2022-10-17T03:11:43;100253.88;;;13.57;100.00
55755;BME280;41674;52.290;-1.474;2022-10-17T03:14:12;100259.97;;;13.19;100.00
55755;BME280;41674;52.290;-1.474;2022-10-17T03:16:42;100266.47;;;13.76;100.00
55755;BME280;41674;52.290;-1.474;2022-10-17T03:19:11;100281.96;;;14.04;100.00
55755;BME280;41674;52.290;-1.474;2022-10-17T03:21:41;100269.92;;;13.56;100.00
55755;BME280;41674;52.290;-1.474;2022-10-17T03:24:20;100275.91;;;13.44;100.00
55755;BME280;41674;52.290;-1.474;2022-10-17T03:26:40;100277.96;;;13.41;100.00
55755;BME280;41674;52.290;-1.474;2022-10-17T03:29:10;100279.80;;;13.20;100.00
55755;BME280;41674;52.290;-1.474;2022-10-17T03:31:39;100284.13;;;13.66;100.00
55755;BME280;41674;52.290;-1.474;2022-10-17T03:34:09;100285.29;;;12.89;100.00
55755;BME280;41674;52.290;-1.474;2022-10-17T03:36:38;100276.34;;;13.10;100.00
55755;BME280;41674;52.290;-1.474;2022-10-17T03:39:08;100286.66;;;12.87;100.00
55755;BME280;41674;52.290;-1.474;2022-10-17T03:41:37;100290.32;;;12.57;100.00
55755;BME280;41674;52.290;-1.474;2022-10-17T03:44:07;100279.38;;;12.26;100.00
55755;BME280;41674;52.290;-1.474;2022-10-17T03:46:37;100278.16;;;12.24;100.00
55755;BME280;41674;52.290;-1.474;2022-10-17T03:49:08;100276.69;;;12.03;100.00
55755;BME280;41674;52.290;-1.474;2022-10-17T03:54:05;100280.99;;;12.32;100.00
55755;BME280;41674;52.290;-1.474;2022-10-17T03:56:35;100276.11;;;12.57;100.00
55755;BME280;41674;52.290;-1.474;2022-10-17T03:59:04;100275.24;;;13.16;100.00
55755;BME280;41674;52.290;-1.474;2022-10-17T04:01:34;100280.07;;;12.85;100.00
55755;BME280;41674;52.290;-1.474;2022-10-17T04:04:04;100273.48;;;13.12;100.00
55755;BME280;41674;52.290;-1.474;2022-10-17T04:06:35;100271.92;;;13.24;100.00
55755;BME280;41674;52.290;-1.474;2022-10-17T04:09:03;100287.69;;;12.90;100.00
55755;BME280;41674;52.290;-1.474;2022-10-17T04:11:33;100288.60;;;12.82;100.00
55755;BME280;41674;52.290;-1.474;2022-10-17T04:14:02;100288.57;;;13.63;100.00
55755;BME280;41674;52.290;-1.474;2022-10-17T04:16:31;100292.23;;;13.86;100.00
55755;BME280;41674;52.290;-1.474;2022-10-17T04:19:01;100302.69;;;13.30;100.00
55755;BME280;41674;52.290;-1.474;2022-10-17T04:21:31;100306.63;;;12.80;100.00
55755;BME280;41674;52.290;-1.474;2022-10-17T04:24:00;100300.00;;;12.62;100.00
55755;BME280;41674;52.290;-1.474;2022-10-17T04:26:30;100296.11;;;12.97;100.00
55755;BME280;41674;52.290;-1.474;2022-10-17T04:28:59;100301.58;;;13.08;100.00
55755;BME280;41674;52.290;-1.474;2022-10-17T04:31:29;100307.09;;;12.83;100.00
55755;BME280;41674;52.290;-1.474;2022-10-17T04:33:58;100313.25;;;12.63;100.00
55755;BME280;41674;52.290;-1.474;2022-10-17T04:36:28;100315.34;;;12.85;100.00
55755;BME280;41674;52.290;-1.474;2022-10-17T04:38:59;100322.72;;;12.73;100.00
55755;BME280;41674;52.290;-1.474;2022-10-17T04:41:27;100335.48;;;13.35;100.00
55755;BME280;41674;52.290;-1.474;2022-10-17T04:43:57;100340.46;;;12.62;100.00
55755;BME280;41674;52.290;-1.474;2022-10-17T04:46:26;100342.31;;;13.15;100.00
55755;BME280;41674;52.290;-1.474;2022-10-17T04:48:56;100345.01;;;13.31;99.73
55755;BME280;41674;52.290;-1.474;2022-10-17T04:51:25;100337.55;;;13.43;98.20
55755;BME280;41674;52.290;-1.474;2022-10-17T04:53:55;100332.78;;;13.91;97.27
55755;BME280;41674;52.290;-1.474;2022-10-17T04:56:24;100336.93;;;13.74;97.48
55755;BME280;41674;52.290;-1.474;2022-10-17T04:58:54;100337.03;;;13.52;98.48
55755;BME280;41674;52.290;-1.474;2022-10-17T05:01:24;100341.30;;;13.79;96.19
55755;BME280;41674;52.290;-1.474;2022-10-17T05:03:53;100342.10;;;13.29;97.23
55755;BME280;41674;52.290;-1.474;2022-10-17T05:06:24;100348.54;;;13.94;95.01
55755;BME280;41674;52.290;-1.474;2022-10-17T05:08:52;100356.28;;;13.26;98.27
55755;BME280;41674;52.290;-1.474;2022-10-17T05:11:23;100371.26;;;13.10;99.40
55755;BME280;41674;52.290;-1.474;2022-10-17T05:13:53;100365.51;;;13.46;99.21
55755;BME280;41674;52.290;-1.474;2022-10-17T05:16:22;100366.24;;;13.84;97.72
55755;BME280;41674;52.290;-1.474;2022-10-17T05:18:52;100371.67;;;14.03;97.56
55755;BME280;41674;52.290;-1.474;2022-10-17T05:21:21;100375.32;;;14.42;96.21
55755;BME280;41674;52.290;-1.474;2022-10-17T05:23:50;100382.10;;;14.10;97.71
55755;BME280;41674;52.290;-1.474;2022-10-17T05:26:19;100389.74;;;13.64;100.00
55755;BME280;41674;52.290;-1.474;2022-10-17T05:28:49;100399.37;;;13.22;100.00
55755;BME280;41674;52.290;-1.474;2022-10-17T05:31:18;100401.42;;;13.71;100.00
55755;BME280;41674;52.290;-1.474;2022-10-17T05:33:48;100406.55;;;14.06;100.00
55755;BME280;41674;52.290;-1.474;2022-10-17T05:36:17;100410.88;;;13.73;100.00
55755;BME280;41674;52.290;-1.474;2022-10-17T05:38:49;100422.49;;;13.83;100.00
55755;BME280;41674;52.290;-1.474;2022-10-17T05:41:22;100431.08;;;14.24;99.01
55755;BME280;41674;52.290;-1.474;2022-10-17T05:43:46;100427.07;;;14.50;98.50
55755;BME280;41674;52.290;-1.474;2022-10-17T05:46:16;100436.43;;;14.21;100.00
55755;BME280;41674;52.290;-1.474;2022-10-17T05:48:45;100441.64;;;13.98;100.00
55755;BME280;41674;52.290;-1.474;2022-10-17T05:51:24;100449.69;;;13.32;100.00
55755;BME280;41674;52.290;-1.474;2022-10-17T05:53:59;100455.55;;;13.78;100.00
55755;BME280;41674;52.290;-1.474;2022-10-17T05:56:14;100457.50;;;13.85;100.00
55755;BME280;41674;52.290;-1.474;2022-10-17T05:58:43;100453.00;;;14.19;100.00
55755;BME280;41674;52.290;-1.474;2022-10-17T06:01:13;100460.11;;;14.60;99.53
55755;BME280;41674;52.290;-1.474;2022-10-17T06:03:43;100463.80;;;15.09;97.75
55755;BME280;41674;52.290;-1.474;2022-10-17T06:06:13;100472.05;;;14.88;97.39
55755;BME280;41674;52.290;-1.474;2022-10-17T06:11:12;100486.43;;;14.95;96.89
55755;BME280;41674;52.290;-1.474;2022-10-17T06:13:41;100489.50;;;14.67;98.90
55755;BME280;41674;52.290;-1.474;2022-10-17T06:16:10;100500.78;;;14.98;98.93
55755;BME280;41674;52.290;-1.474;2022-10-17T06:18:40;100505.70;;;15.13;97.06
55755;BME280;41674;52.290;-1.474;2022-10-17T06:21:11;100514.32;;;14.21;100.00
55755;BME280;41674;52.290;-1.474;2022-10-17T06:23:39;100519.46;;;14.02;100.00
55755;BME280;41674;52.290;-1.474;2022-10-17T06:26:09;100526.49;;;13.94;100.00
55755;BME280;41674;52.290;-1.474;2022-10-17T06:28:38;100524.14;;;14.19;100.00
55755;BME280;41674;52.290;-1.474;2022-10-17T06:31:10;100525.99;;;13.03;100.00
55755;BME280;41674;52.290;-1.474;2022-10-17T06:33:38;100529.94;;;13.80;100.00
55755;BME280;41674;52.290;-1.474;2022-10-17T06:36:10;100536.53;;;14.39;100.00
55755;BME280;41674;52.290;-1.474;2022-10-17T06:38:36;100544.97;;;12.79;100.00
55755;BME280;41674;52.290;-1.474;2022-10-17T06:41:08;100549.29;;;12.93;100.00
55755;BME280;41674;52.290;-1.474;2022-10-17T06:43:36;100552.35;;;13.07;100.00
55755;BME280;41674;52.290;-1.474;2022-10-17T06:46:05;100553.33;;;12.74;100.00
55755;BME280;41674;52.290;-1.474;2022-10-17T06:48:36;100561.24;;;13.53;100.00
55755;BME280;41674;52.290;-1.474;2022-10-17T06:51:06;100567.82;;;12.57;100.00
55755;BME280;41674;52.290;-1.474;2022-10-17T06:53:34;100573.12;;;13.08;100.00
55755;BME280;41674;52.290;-1.474;2022-10-17T06:56:04;100584.13;;;13.31;100.00
55755;BME280;41674;52.290;-1.474;2022-10-17T06:58:34;100592.63;;;13.59;100.00
55755;BME280;41674;52.290;-1.474;2022-10-17T07:01:05;100603.73;;;12.96;100.00
55755;BME280;41674;52.290;-1.474;2022-10-17T07:03:32;100613.64;;;12.29;100.00
55755;BME280;41674;52.290;-1.474;2022-10-17T07:06:02;100617.68;;;12.78;100.00
55755;BME280;41674;52.290;-1.474;2022-10-17T07:08:31;100619.92;;;13.08;100.00
55755;BME280;41674;52.290;-1.474;2022-10-17T07:11:09;100628.44;;;13.36;100.00
55755;BME280;41674;52.290;-1.474;2022-10-17T07:13:30;100634.64;;;13.35;98.87
55755;BME280;41674;52.290;-1.474;2022-10-17T07:16:00;100643.80;;;13.30;100.00
55755;BME280;41674;52.290;-1.474;2022-10-17T07:18:29;100649.16;;;13.57;99.29
55755;BME280;41674;52.290;-1.474;2022-10-17T07:20:59;100660.94;;;13.59;98.70
55755;BME280;41674;52.290;-1.474;2022-10-17T07:23:29;100666.19;;;14.23;95.17
55755;BME280;41674;52.290;-1.474;2022-10-17T07:25:59;100665.38;;;14.54;91.90
55755;BME280;41674;52.290;-1.474;2022-10-17T07:28:28;100670.64;;;14.77;92.46
55755;BME280;41674;52.290;-1.474;2022-10-17T07:31:02;100680.87;;;14.39;93.36
55755;BME280;41674;52.290;-1.474;2022-10-17T07:33:27;100679.59;;;13.77;95.19
55755;BME280;41674;52.290;-1.474;2022-10-17T07:35:58;100682.26;;;13.48;95.22
55755;BME280;41674;52.290;-1.474;2022-10-17T07:38:31;100683.64;;;13.68;96.38
55755;BME280;41674;52.290;-1.474;2022-10-17T07:40:56;100685.24;;;13.29;98.59
55755;BME280;41674;52.290;-1.474;2022-10-17T07:43:25;100686.95;;;13.71;97.17
55755;BME280;41674;52.290;-1.474;2022-10-17T07:45:55;100689.67;;;13.66;98.00
55755;BME280;41674;52.290;-1.474;2022-10-17T07:48:24;100695.14;;;13.83;97.71
55755;BME280;41674;52.290;-1.474;2022-10-17T07:50:54;100697.50;;;13.54;99.22
55755;BME280;41674;52.290;-1.474;2022-10-17T07:53:23;100709.41;;;13.05;100.00
55755;BME280;41674;52.290;-1.474;2022-10-17T07:55:53;100709.43;;;13.10;100.00
55755;BME280;41674;52.290;-1.474;2022-10-17T07:58:22;100718.46;;;13.01;100.00
55755;BME280;41674;52.290;-1.474;2022-10-17T08:00:52;100723.64;;;12.70;100.00
55755;BME280;41674;52.290;-1.474;2022-10-17T08:03:22;100723.24;;;13.34;100.00
55755;BME280;41674;52.290;-1.474;2022-10-17T08:05:51;100727.48;;;12.82;100.00
55755;BME280;41674;52.290;-1.474;2022-10-17T08:08:21;100733.89;;;12.48;100.00
55755;BME280;41674;52.290;-1.474;2022-10-17T08:10:51;100739.29;;;13.28;100.00
55755;BME280;41674;52.290;-1.474;2022-10-17T08:13:20;100750.46;;;13.26;100.00
55755;BME280;41674;52.290;-1.474;2022-10-17T08:15:49;100758.39;;;13.28;100.00
55755;BME280;41674;52.290;-1.474;2022-10-17T08:18:19;100762.49;;;12.88;100.00
55755;BME280;41674;52.290;-1.474;2022-10-17T08:20:49;100764.07;;;13.07;100.00
55755;BME280;41674;52.290;-1.474;2022-10-17T08:23:18;100765.81;;;14.03;96.89
55755;BME280;41674;52.290;-1.474;2022-10-17T08:25:48;100765.12;;;14.06;95.18
55755;BME280;41674;52.290;-1.474;2022-10-17T08:28:17;100769.24;;;13.99;95.72
55755;BME280;41674;52.290;-1.474;2022-10-17T08:30:47;100769.34;;;14.45;94.06
55755;BME280;41674;52.290;-1.474;2022-10-17T08:33:16;100771.44;;;13.83;96.25
55755;BME280;41674;52.290;-1.474;2022-10-17T08:35:46;100776.54;;;13.48;97.51
55755;BME280;41674;52.290;-1.474;2022-10-17T08:38:16;100779.13;;;13.85;98.20
55755;BME280;41674;52.290;-1.474;2022-10-17T08:40:48;100783.07;;;13.28;100.00
55755;BME280;41674;52.290;-1.474;2022-10-17T08:43:24;100779.82;;;13.28;100.00
55755;BME280;41674;52.290;-1.474;2022-10-17T08:45:52;100780.54;;;13.53;99.61
55755;BME280;41674;52.290;-1.474;2022-10-17T08:48:28;100792.16;;;13.61;99.96
55755;BME280;41674;52.290;-1.474;2022-10-17T08:50:45;100798.46;;;13.57;98.23
55755;BME280;41674;52.290;-1.474;2022-10-17T08:53:18;100805.50;;;14.47;95.54
55755;BME280;41674;52.290;-1.474;2022-10-17T08:55:45;100813.43;;;14.30;95.24
55755;BME280;41674;52.290;-1.474;2022-10-17T08:58:13;100817.79;;;14.46;94.80
55755;BME280;41674;52.290;-1.474;2022-10-17T09:00:45;100822.18;;;13.91;97.67
55755;BME280;41674;52.290;-1.474;2022-10-17T09:03:19;100826.05;;;13.62;97.53
55755;BME280;41674;52.290;-1.474;2022-10-17T09:05:45;100831.86;;;13.29;99.90
55755;BME280;41674;52.290;-1.474;2022-10-17T09:08:21;100831.32;;;14.06;99.33
55755;BME280;41674;52.290;-1.474;2022-10-17T09:10:48;100833.10;;;13.87;97.07
55755;BME280;41674;52.290;-1.474;2022-10-17T09:13:18;100838.89;;;13.27;99.54
55755;BME280;41674;52.290;-1.474;2022-10-17T09:15:49;100842.15;;;13.86;97.51
55755;BME280;41674;52.290;-1.474;2022-10-17T09:18:11;100852.27;;;13.86;97.03
55755;BME280;41674;52.290;-1.474;2022-10-17T09:20:41;100858.18;;;14.05;97.86
55755;BME280;41674;52.290;-1.474;2022-10-17T09:23:14;100869.80;;;13.84;99.15
55755;BME280;41674;52.290;-1.474;2022-10-17T09:28:13;100875.17;;;13.66;99.19
55755;BME280;41674;52.290;-1.474;2022-10-17T09:30:41;100883.07;;;13.34;100.00
55755;BME280;41674;52.290;-1.474;2022-10-17T09:33:10;100890.87;;;13.81;98.45
55755;BME280;41674;52.290;-1.474;2022-10-17T09:35:36;100893.63;;;13.56;100.00
55755;BME280;41674;52.290;-1.474;2022-10-17T09:38:05;100898.71;;;13.51;99.44
55755;BME280;41674;52.290;-1.474;2022-10-17T09:40:36;100909.67;;;13.86;99.52
55755;BME280;41674;52.290;-1.474;2022-10-17T09:43:06;100900.48;;;13.67;100.00
55755;BME280;41674;52.290;-1.474;2022-10-17T09:48:10;100916.45;;;13.25;100.00
55755;BME280;41674;52.290;-1.474;2022-10-17T09:50:38;100928.32;;;13.31;99.70
55755;BME280;41674;52.290;-1.474;2022-10-17T09:55:42;100933.15;;;13.13;97.13
55755;BME280;41674;52.290;-1.474;2022-10-17T09:58:03;100929.87;;;13.10;97.83
55755;BME280;41674;52.290;-1.474;2022-10-17T10:00:32;100939.19;;;13.53;95.58
55755;BME280;41674;52.290;-1.474;2022-10-17T10:03:11;100939.98;;;14.14;93.34
55755;BME280;41674;52.290;-1.474;2022-10-17T10:05:30;100953.05;;;13.68;92.94
55755;BME280;41674;52.290;-1.474;2022-10-17T10:08:02;100960.07;;;13.95;92.82
55755;BME280;41674;52.290;-1.474;2022-10-17T10:10:30;100967.84;;;14.00;91.74
55755;BME280;41674;52.290;-1.474;2022-10-17T10:13:05;100977.76;;;13.73;92.99
55755;BME280;41674;52.290;-1.474;2022-10-17T10:15:33;100984.17;;;13.87;91.66
55755;BME280;41674;52.290;-1.474;2022-10-17T10:17:58;100984.86;;;14.02;92.34
55755;BME280;41674;52.290;-1.474;2022-10-17T10:20:31;100984.67;;;13.53;94.03
55755;BME280;41674;52.290;-1.474;2022-10-17T10:23:09;100990.70;;;13.21;94.92
55755;BME280;41674;52.290;-1.474;2022-10-17T10:25:26;100997.20;;;13.57;96.06
55755;BME280;41674;52.290;-1.474;2022-10-17T10:27:56;101005.04;;;13.60;93.67
55755;BME280;41674;52.290;-1.474;2022-10-17T10:30:32;101012.94;;;13.94;92.48
55755;BME280;41674;52.290;-1.474;2022-10-17T10:32:56;101015.72;;;13.89;91.48
55755;BME280;41674;52.290;-1.474;2022-10-17T10:35:30;101016.70;;;13.89;93.10
55755;BME280;41674;52.290;-1.474;2022-10-17T10:37:56;101019.96;;;13.95;93.65
55755;BME280;41674;52.290;-1.474;2022-10-17T10:40:26;101030.96;;;13.75;91.28
55755;BME280;41674;52.290;-1.474;2022-10-17T10:42:55;101026.00;;;13.50;91.70
55755;BME280;41674;52.290;-1.474;2022-10-17T10:45:24;101030.48;;;13.92;91.03
55755;BME280;41674;52.290;-1.474;2022-10-17T10:47:54;101031.43;;;14.17;91.66
55755;BME280;41674;52.290;-1.474;2022-10-17T10:50:27;101033.38;;;13.91;92.69
55755;BME280;41674;52.290;-1.474;2022-10-17T10:53:01;101039.82;;;13.93;90.05
55755;BME280;41674;52.290;-1.474;2022-10-17T10:55:25;101034.04;;;14.86;89.59
55755;BME280;41674;52.290;-1.474;2022-10-17T10:58:00;101038.95;;;15.00;89.21
55755;BME280;41674;52.290;-1.474;2022-10-17T11:00:27;101045.31;;;14.80;84.97
55755;BME280;41674;52.290;-1.474;2022-10-17T11:02:57;101049.62;;;14.55;85.47
55755;BME280;41674;52.290;-1.474;2022-10-17T11:05:27;101043.63;;;14.56;85.64
55755;BME280;41674;52.290;-1.474;2022-10-17T11:07:52;101045.31;;;14.76;85.19
55755;BME280;41674;52.290;-1.474;2022-10-17T11:10:23;101051.01;;;14.98;86.43
55755;BME280;41674;52.290;-1.474;2022-10-17T11:12:53;101046.78;;;14.41;87.57
55755;BME280;41674;52.290;-1.474;2022-10-17T11:15:24;101043.80;;;15.19;86.79
55755;BME280;41674;52.290;-1.474;2022-10-17T11:17:56;101052.22;;;15.67;84.78
55755;BME280;41674;52.290;-1.474;2022-10-17T11:20:20;101056.72;;;15.14;82.01
55755;BME280;41674;52.290;-1.474;2022-10-17T11:22:55;101061.54;;;14.61;85.31
55755;BME280;41674;52.290;-1.474;2022-10-17T11:25:29;101065.67;;;15.50;84.88
55755;BME280;41674;52.290;-1.474;2022-10-17T11:27:45;101068.84;;;15.36;86.18
55755;BME280;41674;52.290;-1.474;2022-10-17T11:30:15;101078.25;;;15.53;83.63
55755;BME280;41674;52.290;-1.474;2022-10-17T11:35:19;101079.37;;;15.08;84.26
55755;BME280;41674;52.290;-1.474;2022-10-17T11:37:46;101091.72;;;14.82;87.39
55755;BME280;41674;52.290;-1.474;2022-10-17T11:40:16;101084.12;;;14.79;87.26
55755;BME280;41674;52.290;-1.474;2022-10-17T11:42:50;101094.77;;;14.70;85.76
55755;BME280;41674;52.290;-1.474;2022-10-17T11:45:16;101092.21;;;14.99;86.09
55755;BME280;41674;52.290;-1.474;2022-10-17T11:47:45;101089.02;;;14.90;85.77
55755;BME280;41674;52.290;-1.474;2022-10-17T11:50:21;101096.73;;;15.14;86.68
55755;BME280;41674;52.290;-1.474;2022-10-17T11:52:42;101108.28;;;15.06;85.33
55755;BME280;41674;52.290;-1.474;2022-10-17T11:55:16;101112.58;;;15.21;85.58
55755;BME280;41674;52.290;-1.474;2022-10-17T11:57:51;101109.45;;;14.80;84.65
55755;BME280;41674;52.290;-1.474;2022-10-17T12:00:19;101103.39;;;15.43;84.65
55755;BME280;41674;52.290;-1.474;2022-10-17T12:05:23;101099.98;;;16.20;78.57
55755;BME280;41674;52.290;-1.474;2022-10-17T12:07:47;101105.60;;;16.74;78.62
55755;BME280;41674;52.290;-1.474;2022-10-17T12:10:17;101114.38;;;17.87;76.99
55755;BME280;41674;52.290;-1.474;2022-10-17T12:12:36;101116.27;;;17.03;74.26
55755;BME280;41674;52.290;-1.474;2022-10-17T12:17:36;101125.43;;;18.02;67.34
55755;BME280;41674;52.290;-1.474;2022-10-17T12:22:34;101139.27;;;17.45;69.39
55755;BME280;41674;52.290;-1.474;2022-10-17T12:25:04;101138.23;;;16.46;70.58
55755;BME280;41674;52.290;-1.474;2022-10-17T12:27:39;101143.11;;;16.63;71.69
55755;BME280;41674;52.290;-1.474;2022-10-17T12:32:33;101148.69;;;17.65;70.62
55755;BME280;41674;52.290;-1.474;2022-10-17T12:35:02;101149.51;;;17.38;69.40
55755;BME280;41674;52.290;-1.474;2022-10-17T12:40:01;101158.89;;;17.81;67.09
55755;BME280;41674;52.290;-1.474;2022-10-17T12:45:00;101170.24;;;18.97;60.88
55755;BME280;41674;52.290;-1.474;2022-10-17T12:47:37;101175.12;;;18.65;61.04
55755;BME280;41674;52.290;-1.474;2022-10-17T12:49:59;101163.02;;;18.96;63.07
55755;BME280;41674;52.290;-1.474;2022-10-17T12:55:06;101149.96;;;18.37;61.82
55755;BME280;41674;52.290;-1.474;2022-10-17T12:57:34;101152.21;;;18.36;61.65
55755;BME280;41674;52.290;-1.474;2022-10-17T12:59:59;101150.12;;;19.26;60.67
55755;BME280;41674;52.290;-1.474;2022-10-17T13:02:28;101146.72;;;20.81;58.33
55755;BME280;41674;52.290;-1.474;2022-10-17T13:05:04;101151.91;;;20.39;55.31
55755;BME280;41674;52.290;-1.474;2022-10-17T13:07:26;101158.37;;;21.21;55.87
55755;BME280;41674;52.290;-1.474;2022-10-17T13:09:55;101160.77;;;20.76;54.15
55755;BME280;41674;52.290;-1.474;2022-10-17T13:12:26;101171.01;;;20.29;54.66
55755;BME280;41674;52.290;-1.474;2022-10-17T13:14:55;101168.59;;;20.17;56.44
55755;BME280;41674;52.290;-1.474;2022-10-17T13:17:27;101178.07;;;20.24;55.88
55755;BME280;41674;52.290;-1.474;2022-10-17T13:19:54;101172.26;;;20.59;55.81
55755;BME280;41674;52.290;-1.474;2022-10-17T13:22:37;101171.27;;;21.30;52.40